Thunder radar more information blitzortung!


Radar de pluja more information rain snow radar


Visita la nostra xarxa de llocs de meteo:

Template documentation
and downloads

And another site



No particular awareness of the weather is required.    There are no Weather-warnings

Pagina Historial Weather Underground text

Diari Resum Juny 4, 2017 Unitats:  Mètric    Imperial   Tant
« Previous Dia
SegĂźent Dia »
Diari Setmana Mensual Anual Personalitzada
  Maxima: Minima: Media:
Temperatura: 24.5 °C 15.0 °C 20.5 °C
Punt de rosada: 15.3 °C 10.3 °C 13.8 °C
Humitat: 89 % 51 % 67 %
Wind Speed: 13.0 km/h 0.0 km/h 3.7 km/h
RĂ fegues de vent: 13.0 km/h - -
Vent:- - South
Pression baro: 1017.8 hPa 1012.8 hPa -
Precipitacions: 3.0 mm    
Historical Graphs
 
 
Dades de taula per Juny 4, 2017
Temps Temperatura Punt de rosada Pression baro Vent Wind Speed RĂ fegues de vent Humitat Rainfall Rate (Hourly)
00:00 20.1 °C 10.5 °C 1015.8 hPa ENE 4.7 km/h 4.7 km/h 54 % 0.0 mm
00:05 19.9 °C 10.3 °C 1016.8 hPa NE 11.1 km/h 11.1 km/h 54 % 0.0 mm
00:10 17.3 °C 12.2 °C 1015.8 hPa NNE 3.2 km/h 4.8 km/h 72 % 0.0 mm
00:20 17.2 °C 11.9 °C 1015.8 hPa North 1.6 km/h 4.8 km/h 71 % 0.0 mm
00:30 17.1 °C 11.8 °C 1015.8 hPa WNW 1.6 km/h 3.2 km/h 71 % 0.0 mm
00:40 16.9 °C 12.0 °C 1016.8 hPa WSW 1.6 km/h 3.2 km/h 73 % 0.0 mm
00:50 16.9 °C 12.0 °C 1015.8 hPa SW 1.6 km/h 3.2 km/h 73 % 0.0 mm
01:00 16.9 °C 12.0 °C 1015.8 hPa Calm     73 % 0.0 mm
01:10 16.9 °C 12.0 °C 1015.8 hPa WSW 1.6 km/h 3.2 km/h 73 % 0.0 mm
01:20 16.8 °C 12.1 °C 1015.8 hPa WSW 1.6 km/h 3.2 km/h 74 % 0.0 mm
01:30 16.7 °C 12.2 °C 1015.8 hPa WSW 1.6 km/h 3.2 km/h 75 % 0.0 mm
01:40 16.6 °C 12.2 °C 1015.8 hPa WSW 1.6 km/h 3.2 km/h 75 % 0.0 mm
01:50 16.6 °C 12.3 °C 1015.8 hPa WSW 3.2 km/h 3.2 km/h 76 % 0.0 mm
02:00 16.8 °C 12.7 °C 1015.8 hPa WSW 1.6 km/h 3.2 km/h 77 % 0.0 mm
02:10 17.0 °C 12.7 °C 1015.8 hPa Calm   3.2 km/h 76 % 0.0 mm
02:20 17.0 °C 12.7 °C 1015.8 hPa Calm   1.6 km/h 76 % 0.0 mm
02:30 17.2 °C 12.9 °C 1015.8 hPa Calm   3.2 km/h 76 % 0.0 mm
02:40 17.3 °C 12.8 °C 1015.8 hPa WSW 1.6 km/h 1.6 km/h 75 % 0.0 mm
02:50 17.5 °C 13.0 °C 1015.8 hPa Calm   3.2 km/h 75 % 0.0 mm
03:00 17.6 °C 13.1 °C 1015.8 hPa SW 1.6 km/h 3.2 km/h 75 % 0.0 mm
03:20 18.3 °C 13.6 °C 1016.8 hPa Calm   1.6 km/h 74 % 0.0 mm
03:30 18.7 °C 13.8 °C 1016.8 hPa Calm   3.2 km/h 73 % 0.0 mm
03:40 18.7 °C 13.8 °C 1016.8 hPa NW 3.2 km/h 3.2 km/h 73 % 0.0 mm
03:50 18.6 °C 13.2 °C 1016.8 hPa NNE 3.2 km/h 4.8 km/h 71 % 0.0 mm
04:00 19.0 °C 13.2 °C 1016.8 hPa NNE 1.6 km/h 1.6 km/h 69 % 0.0 mm
04:10 19.0 °C 13.4 °C 1016.8 hPa NE 1.6 km/h 3.2 km/h 70 % 0.0 mm
04:20 19.2 °C 13.8 °C 1017.8 hPa ENE 1.6 km/h 3.2 km/h 71 % 0.0 mm
04:30 19.5 °C 14.1 °C 1017.8 hPa Calm   3.2 km/h 71 % 0.0 mm
04:40 19.8 °C 14.2 °C 1016.8 hPa SW 1.6 km/h 3.2 km/h 70 % 0.0 mm
04:50 19.6 °C 14.2 °C 1016.8 hPa ESE 4.8 km/h 6.4 km/h 71 % 0.0 mm
05:00 19.8 °C 13.9 °C 1016.8 hPa East 1.6 km/h 3.2 km/h 69 % 0.0 mm
05:10 19.9 °C 13.6 °C 1016.8 hPa NE 4.8 km/h 6.4 km/h 67 % 0.0 mm
05:20 20.0 °C 13.4 °C 1015.8 hPa NE 4.8 km/h 6.4 km/h 66 % 0.0 mm
05:30 20.2 °C 13.7 °C 1015.8 hPa ENE 3.2 km/h 6.4 km/h 66 % 0.0 mm
05:40 20.4 °C 13.8 °C 1017.8 hPa SW 1.6 km/h 4.8 km/h 66 % 0.0 mm
05:50 20.4 °C 13.8 °C 1016.8 hPa WSW 3.2 km/h 6.4 km/h 66 % 0.0 mm
06:00 20.4 °C 13.6 °C 1016.8 hPa West 4.8 km/h 12.9 km/h 65 % 0.0 mm
06:10 20.9 °C 14.1 °C 1017.8 hPa WNW 3.2 km/h 8.0 km/h 65 % 0.0 mm
06:20 21.5 °C 14.4 °C 1017.8 hPa West 3.2 km/h 6.4 km/h 64 % 0.0 mm
06:30 22.6 °C 14.9 °C 1017.8 hPa West 3.2 km/h 4.8 km/h 62 % 0.0 mm
06:35 22.6 °C 14.4 °C 1016.8 hPa West 3.2 km/h 8.0 km/h 60 % 0.0 mm
11:36 22.7 °C 14.6 °C 1016.8 hPa ESE 9.3 km/h 9.3 km/h 60 % 0.0 mm
11:41 22.8 °C 14.4 °C 1016.8 hPa WNW 9.3 km/h 9.3 km/h 59 % 0.0 mm
11:46 23.1 °C 14.7 °C 1016.8 hPa NNE 5.8 km/h 5.8 km/h 59 % 0.0 mm
11:51 22.8 °C 14.1 °C 1015.8 hPa East 5.6 km/h 5.6 km/h 58 % 0.0 mm
11:56 22.8 °C 14.1 °C 1015.8 hPa NNE 7.4 km/h 7.4 km/h 58 % 0.0 mm
12:01 23.1 °C 14.4 °C 1015.8 hPa WNW 3.7 km/h 3.7 km/h 58 % 0.0 mm
12:06 23.3 °C 14.6 °C 1015.8 hPa NW 5.6 km/h 5.6 km/h 58 % 0.0 mm
12:11 23.5 °C 14.5 °C 1015.8 hPa NNE 5.6 km/h 5.6 km/h 57 % 0.0 mm
12:16 22.9 °C 13.7 °C 1015.8 hPa NE 9.3 km/h 9.3 km/h 56 % 0.0 mm
12:21 22.7 °C 13.7 °C 1015.8 hPa ENE 7.6 km/h 7.6 km/h 57 % 0.0 mm
12:26 23.3 °C 14.1 °C 1015.8 hPa East 3.7 km/h 3.7 km/h 56 % 0.0 mm
12:31 23.4 °C 13.8 °C 1015.8 hPa NW 7.4 km/h 7.4 km/h 55 % 0.0 mm
12:36 23.1 °C 13.6 °C 1015.8 hPa WSW 5.6 km/h 5.6 km/h 55 % 0.0 mm
12:41 22.9 °C 13.7 °C 1015.8 hPa NNE 7.4 km/h 7.4 km/h 56 % 0.0 mm
12:45 18.2 °C 15.1 °C 1012.8 hPa WNW 4.8 km/h 12.9 km/h 82 % 0.0 mm
12:46 23.1 °C 13.8 °C 1015.8 hPa NE 5.6 km/h 5.6 km/h 56 % 0.0 mm
12:51 23.2 °C 13.7 °C 1015.8 hPa ENE 7.4 km/h 7.4 km/h 55 % 0.0 mm
12:56 23.6 °C 14.1 °C 1015.8 hPa NNE 5.6 km/h 5.6 km/h 55 % 0.0 mm
13:01 23.6 °C 14.1 °C 1015.8 hPa East 7.4 km/h 7.4 km/h 55 % 0.0 mm
13:06 23.7 °C 13.8 °C 1015.8 hPa NNE 9.3 km/h 9.3 km/h 54 % 0.0 mm
13:11 24.2 °C 14.0 °C 1015.8 hPa NW 7.4 km/h 7.4 km/h 53 % 0.0 mm
13:16 23.7 °C 13.6 °C 1015.8 hPa East 3.7 km/h 4.2 km/h 53 % 0.0 mm
13:21 23.5 °C 13.4 °C 1015.8 hPa NE 5.6 km/h 5.6 km/h 53 % 0.0 mm
13:26 23.2 °C 12.8 °C 1015.8 hPa NNW 6.9 km/h 6.9 km/h 52 % 0.0 mm
13:31 23.3 °C 13.2 °C 1015.8 hPa NE 3.7 km/h 3.7 km/h 53 % 0.0 mm
13:36 24.1 °C 13.6 °C 1015.8 hPa SSW 3.2 km/h 3.2 km/h 52 % 0.0 mm
13:41 24.5 °C 14.3 °C 1015.8 hPa WSW 5.6 km/h 5.6 km/h 53 % 0.0 mm
13:46 24.2 °C 13.7 °C 1015.8 hPa SSW 9.3 km/h 9.3 km/h 52 % 0.0 mm
13:51 24.0 °C 13.8 °C 1015.8 hPa West 7.4 km/h 7.4 km/h 53 % 0.0 mm
13:56 23.9 °C 13.7 °C 1015.8 hPa West 5.6 km/h 5.6 km/h 53 % 0.0 mm
14:01 23.8 °C 13.7 °C 1015.8 hPa SW 5.6 km/h 5.6 km/h 53 % 0.0 mm
14:06 23.8 °C 13.3 °C 1015.8 hPa South 5.6 km/h 5.6 km/h 52 % 0.0 mm
14:11 24.1 °C 13.3 °C 1015.8 hPa WSW 7.4 km/h 7.4 km/h 51 % 0.0 mm
14:16 24.0 °C 13.2 °C 1015.8 hPa NW 6.4 km/h 6.4 km/h 51 % 0.0 mm
14:18 24.1 °C 13.3 °C 1015.8 hPa WSW 7.4 km/h 7.4 km/h 51 % 0.0 mm
14:23 24.1 °C 13.3 °C 1014.8 hPa West 3.9 km/h 3.9 km/h 51 % 0.0 mm
14:28 24.1 °C 13.3 °C 1014.8 hPa West 3.9 km/h 3.9 km/h 51 % 0.0 mm
14:33 24.1 °C 13.3 °C 1014.8 hPa West 3.9 km/h 3.9 km/h 51 % 0.0 mm
14:38 24.1 °C 13.3 °C 1014.8 hPa West 3.9 km/h 3.9 km/h 51 % 0.0 mm
14:43 24.1 °C 13.3 °C 1014.8 hPa West 3.9 km/h 3.9 km/h 51 % 0.0 mm
14:48 24.1 °C 13.3 °C 1014.8 hPa West 3.9 km/h 3.9 km/h 51 % 0.0 mm
14:53 24.1 °C 13.3 °C 1014.8 hPa West 3.9 km/h 3.9 km/h 51 % 0.0 mm
14:58 24.1 °C 13.3 °C 1014.8 hPa West 3.9 km/h 3.9 km/h 51 % 0.0 mm
15:03 24.1 °C 13.3 °C 1014.8 hPa West 3.9 km/h 3.9 km/h 51 % 0.0 mm
15:08 24.1 °C 13.3 °C 1014.8 hPa West 3.9 km/h 3.9 km/h 51 % 0.0 mm
15:13 24.1 °C 13.3 °C 1014.8 hPa West 3.9 km/h 3.9 km/h 51 % 0.0 mm
15:18 24.1 °C 13.3 °C 1014.8 hPa West 3.9 km/h 3.9 km/h 51 % 0.0 mm
15:23 24.1 °C 13.3 °C 1014.8 hPa West 3.9 km/h 3.9 km/h 51 % 0.0 mm
15:28 24.1 °C 13.3 °C 1014.8 hPa West 3.9 km/h 3.9 km/h 51 % 0.0 mm
15:33 24.1 °C 13.3 °C 1014.8 hPa West 3.9 km/h 3.9 km/h 51 % 0.0 mm
15:38 24.1 °C 13.3 °C 1014.8 hPa West 3.9 km/h 3.9 km/h 51 % 0.0 mm
15:43 24.1 °C 13.3 °C 1014.8 hPa West 3.9 km/h 3.9 km/h 51 % 0.0 mm
15:48 24.1 °C 13.3 °C 1014.8 hPa West 3.9 km/h 3.9 km/h 51 % 0.0 mm
15:53 24.1 °C 13.3 °C 1014.8 hPa West 3.9 km/h 3.9 km/h 51 % 0.0 mm
15:58 24.1 °C 13.3 °C 1014.8 hPa West 3.9 km/h 3.9 km/h 51 % 0.0 mm
16:03 24.1 °C 13.3 °C 1014.8 hPa West 3.9 km/h 3.9 km/h 51 % 0.0 mm
16:08 24.1 °C 13.3 °C 1014.8 hPa West 3.9 km/h 3.9 km/h 51 % 0.0 mm
16:13 24.1 °C 13.3 °C 1014.8 hPa West 3.9 km/h 3.9 km/h 51 % 0.0 mm
16:18 24.1 °C 13.3 °C 1014.8 hPa West 3.9 km/h 3.9 km/h 51 % 0.0 mm
16:23 24.1 °C 13.3 °C 1014.8 hPa West 3.9 km/h 3.9 km/h 51 % 0.0 mm
16:28 24.1 °C 13.3 °C 1014.8 hPa West 3.9 km/h 3.9 km/h 51 % 0.0 mm
16:33 24.1 °C 13.3 °C 1014.8 hPa West 3.9 km/h 3.9 km/h 51 % 0.0 mm
16:38 24.1 °C 13.3 °C 1014.8 hPa West 3.9 km/h 3.9 km/h 51 % 0.0 mm
16:43 24.1 °C 13.3 °C 1014.8 hPa West 3.9 km/h 3.9 km/h 51 % 0.0 mm
16:48 24.1 °C 13.3 °C 1014.8 hPa West 3.9 km/h 3.9 km/h 51 % 0.0 mm
16:53 24.1 °C 13.3 °C 1014.8 hPa West 3.9 km/h 3.9 km/h 51 % 0.0 mm
16:58 24.1 °C 13.3 °C 1014.8 hPa West 3.9 km/h 3.9 km/h 51 % 0.0 mm
17:03 24.1 °C 13.3 °C 1014.8 hPa West 3.9 km/h 3.9 km/h 51 % 0.0 mm
17:08 24.1 °C 13.3 °C 1014.8 hPa West 3.9 km/h 3.9 km/h 51 % 0.0 mm
17:13 24.1 °C 13.3 °C 1014.8 hPa West 3.9 km/h 3.9 km/h 51 % 0.0 mm
17:18 24.1 °C 13.3 °C 1014.8 hPa West 3.9 km/h 3.9 km/h 51 % 0.0 mm
17:23 24.1 °C 13.3 °C 1014.8 hPa West 3.9 km/h 3.9 km/h 51 % 0.0 mm
17:28 24.1 °C 13.3 °C 1014.8 hPa West 3.9 km/h 3.9 km/h 51 % 0.0 mm
17:33 24.1 °C 13.3 °C 1014.8 hPa West 3.9 km/h 3.9 km/h 51 % 0.0 mm
17:38 24.1 °C 13.3 °C 1014.8 hPa West 3.9 km/h 3.9 km/h 51 % 0.0 mm
17:45 18.2 °C 15.1 °C 1012.8 hPa WNW 13.0 km/h 13.0 km/h 82 % 0.0 mm
17:50 18.3 °C 15.0 °C 1013.8 hPa NNE 9.3 km/h 9.3 km/h 81 % 3.0 mm
17:55 18.4 °C 15.1 °C 1013.8 hPa ENE 7.4 km/h 7.4 km/h 81 % 3.0 mm
18:00 18.5 °C 15.2 °C 1013.8 hPa ENE 7.4 km/h 7.4 km/h 81 % 3.0 mm
18:05 18.5 °C 15.0 °C 1013.8 hPa NE 9.3 km/h 9.3 km/h 80 % 3.0 mm
18:10 18.6 °C 14.9 °C 1013.8 hPa NNE 5.6 km/h 5.6 km/h 79 % 3.0 mm
18:11 18.6 °C 14.9 °C 1013.8 hPa NNE 5.6 km/h 5.6 km/h 79 % 3.0 mm
18:16 18.8 °C 15.3 °C 1013.8 hPa East 6.4 km/h 6.4 km/h 80 % 3.0 mm
18:21 18.7 °C 15.0 °C 1013.8 hPa NNE 9.3 km/h 9.3 km/h 79 % 3.0 mm
18:26 18.6 °C 14.7 °C 1013.8 hPa NNE 11.1 km/h 11.1 km/h 78 % 3.0 mm
18:31 19.1 °C 15.2 °C 1013.8 hPa NNW 3.7 km/h 3.7 km/h 78 % 3.0 mm
18:36 19.4 °C 15.3 °C 1013.8 hPa North 6.1 km/h 6.1 km/h 77 % 3.0 mm
18:41 19.6 °C 15.3 °C 1013.8 hPa ENE 5.6 km/h 5.6 km/h 76 % 3.0 mm
18:46 19.6 °C 15.1 °C 1013.8 hPa NE 5.3 km/h 5.3 km/h 75 % 3.0 mm
18:51 19.7 °C 14.9 °C 1013.8 hPa NNE 5.8 km/h 5.8 km/h 74 % 0.0 mm
18:56 19.6 °C 14.6 °C 1013.8 hPa NE 5.6 km/h 5.6 km/h 73 % 0.0 mm
19:01 19.8 °C 14.8 °C 1013.8 hPa NE 3.7 km/h 3.7 km/h 73 % 0.0 mm
19:06 19.8 °C 14.8 °C 1012.8 hPa NE 5.6 km/h 5.6 km/h 73 % 0.0 mm
19:11 19.8 °C 14.8 °C 1012.8 hPa NNE 5.6 km/h 5.6 km/h 73 % 0.0 mm
19:16 19.8 °C 14.6 °C 1012.8 hPa East 3.2 km/h 3.2 km/h 72 % 0.0 mm
19:21 19.8 °C 14.6 °C 1013.8 hPa NNE 3.7 km/h 3.7 km/h 72 % 0.0 mm
19:26 19.6 °C 14.4 °C 1013.8 hPa ENE 5.6 km/h 5.6 km/h 72 % 0.0 mm
19:31 19.6 °C 14.4 °C 1013.8 hPa NNE 5.6 km/h 5.6 km/h 72 % 0.0 mm
19:36 19.6 °C 14.4 °C 1013.8 hPa ENE 5.0 km/h 5.0 km/h 72 % 0.0 mm
19:41 19.8 °C 14.8 °C 1013.8 hPa NNE 1.9 km/h 1.9 km/h 73 % 0.0 mm
19:46 19.8 °C 14.6 °C 1013.8 hPa NE 3.7 km/h 3.7 km/h 72 % 0.0 mm
19:51 19.7 °C 14.5 °C 1012.8 hPa North 3.7 km/h 3.7 km/h 72 % 0.0 mm
19:56 19.7 °C 14.5 °C 1012.8 hPa WNW 1.9 km/h   72 % 0.0 mm
20:01 19.8 °C 14.6 °C 1012.8 hPa ENE 1.9 km/h   72 % 0.0 mm
20:06 19.8 °C 14.6 °C 1013.8 hPa ENE 2.6 km/h 2.6 km/h 72 % 0.0 mm
20:11 19.8 °C 14.6 °C 1013.8 hPa ENE 2.6 km/h 2.6 km/h 72 % 0.0 mm
20:16 19.7 °C 14.5 °C 1013.8 hPa East 5.6 km/h 5.6 km/h 72 % 0.0 mm
20:21 19.6 °C 14.4 °C 1013.8 hPa East 1.9 km/h   72 % 0.0 mm
20:26 19.7 °C 14.5 °C 1013.8 hPa Calm     72 % 0.0 mm
20:31 19.8 °C 14.6 °C 1013.8 hPa Calm     72 % 0.0 mm
20:36 19.7 °C 14.7 °C 1012.8 hPa SSE 3.7 km/h 3.7 km/h 73 % 0.0 mm
20:41 19.7 °C 14.7 °C 1012.8 hPa WSW 1.9 km/h 1.9 km/h 73 % 0.0 mm
20:46 19.7 °C 14.7 °C 1012.8 hPa WSW 3.7 km/h 3.7 km/h 73 % 0.0 mm
20:51 19.6 °C 14.8 °C 1013.8 hPa WSW 3.7 km/h 3.7 km/h 74 % 0.0 mm
20:56 19.5 °C 14.7 °C 1013.8 hPa NE 1.4 km/h   74 % 0.0 mm
21:01 19.3 °C 14.6 °C 1013.8 hPa NE 3.7 km/h 3.7 km/h 74 % 0.0 mm
21:06 19.2 °C 14.4 °C 1012.8 hPa Calm     74 % 0.0 mm
21:11 19.1 °C 14.2 °C 1012.8 hPa ENE 3.7 km/h 3.7 km/h 73 % 0.0 mm
21:16 19.1 °C 14.2 °C 1012.8 hPa NE 1.9 km/h 1.9 km/h 73 % 0.0 mm
21:21 19.0 °C 14.1 °C 1012.8 hPa NNE 5.0 km/h 5.0 km/h 73 % 0.0 mm
21:26 19.0 °C 14.1 °C 1012.8 hPa NNE 1.9 km/h 1.9 km/h 73 % 0.0 mm
21:31 18.9 °C 14.2 °C 1012.8 hPa ENE 1.9 km/h   74 % 0.0 mm
21:36 18.9 °C 14.2 °C 1012.8 hPa Calm     74 % 0.0 mm
21:41 18.8 °C 14.1 °C 1012.8 hPa ENE 1.9 km/h 1.9 km/h 74 % 0.0 mm
21:46 18.8 °C 14.1 °C 1012.8 hPa NE 3.7 km/h 3.7 km/h 74 % 0.0 mm
21:51 18.8 °C 14.1 °C 1012.8 hPa Calm     74 % 0.0 mm
21:56 18.8 °C 14.3 °C 1012.8 hPa Calm     75 % 0.0 mm
22:01 18.7 °C 14.2 °C 1012.8 hPa NE 1.9 km/h 1.9 km/h 75 % 0.0 mm
22:06 18.7 °C 14.2 °C 1012.8 hPa Calm     75 % 0.0 mm
22:10 16.4 °C 13.7 °C 1013.8 hPa Calm     84 % 0.0 mm
22:11 18.6 °C 14.1 °C 1012.8 hPa NNE 1.9 km/h   75 % 0.0 mm
22:16 18.6 °C 14.1 °C 1012.8 hPa NE 3.7 km/h 3.7 km/h 75 % 0.0 mm
22:20 16.5 °C 13.9 °C 1013.8 hPa Calm   1.6 km/h 85 % 0.0 mm
22:21 18.6 °C 14.3 °C 1013.8 hPa NNE 3.7 km/h 3.7 km/h 76 % 0.0 mm
22:26 18.6 °C 14.3 °C 1013.8 hPa NE 3.2 km/h 3.2 km/h 76 % 0.0 mm
22:30 16.3 °C 13.8 °C 1013.8 hPa WNW 1.6 km/h 3.2 km/h 85 % 0.0 mm
22:31 18.5 °C 14.2 °C 1013.8 hPa NNE 1.9 km/h   76 % 0.0 mm
22:36 18.5 °C 14.2 °C 1013.8 hPa Calm     76 % 0.0 mm
22:40 16.1 °C 13.6 °C 1013.8 hPa West 3.2 km/h 4.8 km/h 85 % 1.0 mm
22:41 18.5 °C 14.4 °C 1013.8 hPa Calm     77 % 0.0 mm
22:46 18.5 °C 14.4 °C 1013.8 hPa Calm     77 % 0.0 mm
22:50 15.9 °C 13.6 °C 1013.8 hPa WSW 3.2 km/h 3.2 km/h 86 % 1.0 mm
22:51 18.4 °C 14.3 °C 1013.8 hPa Calm     77 % 0.0 mm
22:56 18.5 °C 14.4 °C 1013.8 hPa NNW 1.9 km/h 1.9 km/h 77 % 0.0 mm
23:00 15.7 °C 13.4 °C 1013.8 hPa SW 3.2 km/h 3.2 km/h 86 % 1.0 mm
23:01 18.4 °C 14.3 °C 1013.8 hPa NNE 1.9 km/h   77 % 0.0 mm
23:06 18.5 °C 14.4 °C 1013.8 hPa WNW 1.4 km/h   77 % 0.0 mm
23:10 15.6 °C 13.4 °C 1013.8 hPa SW 1.6 km/h 3.2 km/h 87 % 1.0 mm
23:11 18.5 °C 14.4 °C 1013.8 hPa Calm     77 % 0.0 mm
23:16 18.5 °C 14.4 °C 1013.8 hPa NNE 1.9 km/h 1.9 km/h 77 % 0.0 mm
23:20 15.5 °C 13.3 °C 1013.8 hPa Calm   3.2 km/h 87 % 0.0 mm
23:21 18.5 °C 14.4 °C 1013.8 hPa NE 4.2 km/h   77 % 0.0 mm
23:26 18.5 °C 14.4 °C 1013.8 hPa SW 1.9 km/h   77 % 0.0 mm
23:30 15.4 °C 13.4 °C 1013.8 hPa Calm   1.6 km/h 88 % 0.0 mm
23:31 18.6 °C 14.5 °C 1013.8 hPa WSW 1.9 km/h 1.9 km/h 77 % 0.0 mm
23:36 18.4 °C 14.5 °C 1013.8 hPa SW 1.9 km/h 1.9 km/h 78 % 0.0 mm
23:40 15.2 °C 13.4 °C 1012.8 hPa Calm   3.2 km/h 89 % 1.3 mm
23:41 18.2 °C 14.5 °C 1013.8 hPa SW 2.6 km/h   79 % 0.0 mm
23:46 18.2 °C 14.5 °C 1013.8 hPa Calm     79 % 0.0 mm
23:50 15.0 °C 13.0 °C 1013.8 hPa SW 3.2 km/h 4.8 km/h 88 % 1.3 mm
23:51 18.1 °C 14.6 °C 1012.8 hPa Calm     80 % 0.0 mm
23:56 18.1 °C 14.6 °C 1012.8 hPa Calm     80 % 0.0 mm
Meteo Sesrovires
Elogis d' Weather Underground - 3.5 mb

Guio original per  Jim McMurry - jmcmurry@mwt.net Adaptat per a la plantilla per  Wim van der Kuil - Leuven-Template.eu

Trobareu la nostra informacio del temps tambe a:

Weather Underground

AWEKAS